Time;durP1;ratioP1;P1;durP2;ratioP2;P2;SDS_P1;SDS_P2;PMS_P1;PMS_P2;Temp;Humidity;BMP_temperature;BMP_pressure;BME280_temperature;BME280_humidity;BME280_pressure;Samples;Min_cycle;Max_cycle;Signal;HPM_P1;HPM_P2
2022/05/13 00:02:21;;;;;;;;;;;17.00;99.90;;;;;;5042081;28;19932;-72
2022/05/13 00:04:53;;;;;;;;;;;17.00;99.90;;;;;;5065230;28;19935;-72
2022/05/13 00:07:25;;;;;;;;;;;17.00;99.90;;;;;;5071469;28;19939;-72
2022/05/13 00:09:56;;;;;;;;;;;17.00;99.90;;;;;;5058773;28;19925;-72
2022/05/13 00:12:29;;;;;;;;;;;17.00;99.90;;;;;;5093256;28;19931;-72
2022/05/13 00:15:01;;;;;;;;;;;17.00;99.90;;;;;;5058256;28;19931;-72
2022/05/13 00:17:33;;;;;;;;;;;17.00;99.90;;;;;;5058975;28;19925;-72
2022/05/13 00:20:05;;;;;;;;;;;16.90;99.90;;;;;;5060377;28;20301;-72
2022/05/13 00:22:32;;;;;;;;;;;16.90;99.90;;;;;;5062451;28;19935;-72
2022/05/13 00:25:03;;;;;;;;;;;16.90;99.90;;;;;;5066089;28;20392;-72
2022/05/13 00:27:35;;;;;;;;;;;17.00;99.90;;;;;;5066237;28;19925;-73
2022/05/13 00:30:08;;;;;;;;;;;16.90;99.90;;;;;;5057642;28;20301;-72
2022/05/13 00:32:40;;;;;;;;;;;16.90;99.90;;;;;;5062594;28;19932;-72
2022/05/13 00:35:12;;;;;;;;;;;16.90;99.90;;;;;;5066285;28;19928;-72
2022/05/13 00:37:43;;;;;;;;;;;16.90;99.90;;;;;;5060403;28;19925;-72
2022/05/13 00:40:15;;;;;;;;;;;17.00;99.90;;;;;;5062512;28;20329;-73
2022/05/13 00:42:48;;;;;;;;;;;16.90;99.90;;;;;;5065288;28;19924;-72
2022/05/13 00:45:19;;;;;;;;;;;17.00;99.90;;;;;;5071470;28;19924;-72
2022/05/13 00:47:51;;;;;;;;;;;16.90;99.90;;;;;;5078126;28;19935;-72
2022/05/13 00:50:24;;;;;;;;;;;16.90;99.90;;;;;;5059771;28;19931;-72
2022/05/13 00:52:55;;;;;;;;;;;16.90;99.90;;;;;;5065383;28;19928;-72
2022/05/13 00:55:30;;;;;;;;;;;16.90;99.90;;;;;;5073814;28;19932;-72
2022/05/13 00:58:03;;;;;;;;;;;16.90;99.90;;;;;;5083481;28;20297;-72
2022/05/13 01:00:36;;;;;;;;;;;16.90;99.90;;;;;;5070229;28;19931;-72
2022/05/13 01:03:07;;;;;;;;;;;16.90;99.90;;;;;;5066947;28;19936;-71
2022/05/13 01:05:43;;;;;;;;;;;16.80;99.90;;;;;;5081901;28;19925;-73
2022/05/13 01:08:14;;;;;;;;;;;16.80;99.90;;;;;;5064925;28;19931;-71
2022/05/13 01:10:46;;;;;;;;;;;16.80;99.90;;;;;;5055419;28;20036;-72
2022/05/13 01:13:22;;;;;;;;;;;16.70;99.90;;;;;;5053658;28;19925;-73
2022/05/13 01:15:54;;;;;;;;;;;16.70;99.90;;;;;;5077324;28;19924;-73
2022/05/13 01:18:31;;;;;;;;;;;16.60;99.90;;;;;;5055827;28;19925;-73
2022/05/13 01:21:04;;;;;;;;;;;16.60;99.90;;;;;;5056814;28;19960;-73
2022/05/13 01:23:40;;;;;;;;;;;16.50;99.90;;;;;;5068375;28;19937;-72
2022/05/13 01:26:14;;;;;;;;;;;16.40;99.90;;;;;;5077944;28;19939;-73
2022/05/13 01:28:48;;;;;;;;;;;16.40;99.90;;;;;;5088603;28;19934;-72
2022/05/13 01:31:30;;;;;;;;;;;16.30;99.90;;;;;;5094879;28;19927;-73
2022/05/13 01:34:04;;;;;;;;;;;16.20;99.90;;;;;;5058041;28;19932;-72
2022/05/13 01:36:36;;;;;;;;;;;16.10;99.90;;;;;;5073445;28;19928;-72
2022/05/13 01:39:08;;;;;;;;;;;16.00;99.90;;;;;;5091138;28;20308;-73
2022/05/13 01:41:39;;;;;;;;;;;16.00;99.90;;;;;;5057751;28;19928;-73
2022/05/13 01:44:11;;;;;;;;;;;15.90;99.90;;;;;;5061038;28;20026;-72
2022/05/13 01:46:43;;;;;;;;;;;15.90;99.90;;;;;;5079507;28;20276;-72
2022/05/13 01:49:14;;;;;;;;;;;15.90;99.90;;;;;;5069341;28;19931;-72
2022/05/13 01:51:46;;;;;;;;;;;15.80;99.90;;;;;;5074108;28;19929;-73
2022/05/13 01:54:17;;;;;;;;;;;15.80;99.90;;;;;;5068596;28;19931;-71
2022/05/13 01:56:49;;;;;;;;;;;15.70;99.90;;;;;;5068633;28;19924;-72
2022/05/13 01:59:20;;;;;;;;;;;15.70;99.90;;;;;;5094122;28;19931;-72
2022/05/13 02:01:47;;;;;;;;;;;15.70;99.90;;;;;;5092868;28;20437;-72
2022/05/13 02:04:19;;;;;;;;;;;15.60;99.90;;;;;;5071288;28;19931;-72
2022/05/13 02:06:50;;;;;;;;;;;15.70;99.90;;;;;;5073419;28;20016;-72
2022/05/13 02:09:22;;;;;;;;;;;15.60;99.90;;;;;;5067768;28;19924;-72
2022/05/13 02:11:54;;;;;;;;;;;15.60;99.90;;;;;;5056200;28;19924;-72
2022/05/13 02:14:26;;;;;;;;;;;15.60;99.90;;;;;;5066500;28;19928;-72
2022/05/13 02:16:57;;;;;;;;;;;15.60;99.90;;;;;;5067530;28;19925;-71
2022/05/13 02:19:29;;;;;;;;;;;15.60;99.90;;;;;;5074760;28;19924;-72
2022/05/13 02:22:00;;;;;;;;;;;15.50;99.90;;;;;;5071236;28;19932;-72
2022/05/13 02:24:32;;;;;;;;;;;15.60;99.90;;;;;;5061879;28;19928;-72
2022/05/13 02:27:04;;;;;;;;;;;15.50;99.90;;;;;;5080239;28;19925;-71
2022/05/13 02:29:35;;;;;;;;;;;15.50;99.90;;;;;;5072163;28;19932;-72
2022/05/13 02:32:07;;;;;;;;;;;15.50;99.90;;;;;;5053025;28;19925;-72
2022/05/13 02:34:39;;;;;;;;;;;15.50;99.90;;;;;;5065491;28;19929;-72
2022/05/13 02:37:10;;;;;;;;;;;15.40;99.90;;;;;;5083564;28;19947;-71
2022/05/13 02:39:42;;;;;;;;;;;15.40;99.90;;;;;;5086429;28;19925;-72
2022/05/13 02:42:14;;;;;;;;;;;15.40;99.90;;;;;;5063833;28;20381;-72
2022/05/13 02:44:46;;;;;;;;;;;15.40;99.90;;;;;;5060736;28;20039;-72
2022/05/13 02:47:17;;;;;;;;;;;15.40;99.90;;;;;;5062629;28;20309;-72
2022/05/13 02:50:17;;;;;;;;;;;15.40;99.90;;;;;;5061083;28;20384;-72
2022/05/13 02:52:41;;;;;;;;;;;15.50;99.90;;;;;;5051715;28;19925;-72
2022/05/13 02:55:13;;;;;;;;;;;15.50;99.90;;;;;;5062906;28;19925;-72
2022/05/13 02:57:45;;;;;;;;;;;15.60;99.90;;;;;;5075386;28;19955;-72
2022/05/13 03:00:16;;;;;;;;;;;15.60;99.90;;;;;;5126029;27;20312;-73
2022/05/13 03:02:48;;;;;;;;;;;15.60;99.90;;;;;;5092682;28;19927;-72
2022/05/13 03:05:20;;;;;;;;;;;15.60;99.90;;;;;;5047502;28;19924;-72
2022/05/13 03:07:52;;;;;;;;;;;15.60;99.90;;;;;;5082973;28;20307;-73
2022/05/13 03:10:24;;;;;;;;;;;15.50;99.90;;;;;;5053129;28;19928;-72
2022/05/13 03:12:56;;;;;;;;;;;15.50;99.90;;;;;;5061466;28;20388;-72
2022/05/13 03:15:28;;;;;;;;;;;15.50;99.90;;;;;;5069570;28;20010;-72
2022/05/13 03:17:59;;;;;;;;;;;15.40;99.90;;;;;;5082005;28;19924;-72
2022/05/13 03:20:31;;;;;;;;;;;15.40;99.90;;;;;;5057048;28;19929;-72
2022/05/13 03:23:03;;;;;;;;;;;15.40;99.90;;;;;;5052505;28;19932;-72
2022/05/13 03:25:35;;;;;;;;;;;15.40;99.90;;;;;;5069512;28;19927;-73
2022/05/13 03:28:06;;;;;;;;;;;15.40;99.90;;;;;;5070869;28;19928;-72
2022/05/13 03:30:38;;;;;;;;;;;15.40;99.90;;;;;;5066185;28;19925;-72
2022/05/13 03:33:10;;;;;;;;;;;15.40;99.90;;;;;;5050968;28;19925;-72
2022/05/13 03:35:41;;;;;;;;;;;15.40;99.90;;;;;;5072789;28;20012;-72
2022/05/13 03:38:13;;;;;;;;;;;15.40;99.90;;;;;;5068884;28;20286;-72
2022/05/13 03:40:46;;;;;;;;;;;15.50;99.90;;;;;;5075557;28;20003;-72
2022/05/13 03:43:17;;;;;;;;;;;15.50;99.90;;;;;;5059620;28;20306;-73
2022/05/13 03:45:49;;;;;;;;;;;15.50;99.90;;;;;;5057277;28;19925;-72
2022/05/13 03:48:21;;;;;;;;;;;15.50;99.90;;;;;;5051278;28;19925;-72
2022/05/13 03:50:52;;;;;;;;;;;15.50;99.90;;;;;;5050977;28;20292;-72
2022/05/13 03:53:24;;;;;;;;;;;15.60;99.90;;;;;;5054155;28;20412;-73
2022/05/13 03:55:55;;;;;;;;;;;15.60;99.90;;;;;;5070929;28;20384;-72
2022/05/13 03:58:27;;;;;;;;;;;15.60;99.90;;;;;;5071604;28;19924;-73
2022/05/13 04:00:54;;;;;;;;;;;15.60;99.90;;;;;;5072464;28;19931;-73
2022/05/13 04:03:25;;;;;;;;;;;15.60;99.90;;;;;;5069749;28;19929;-73
2022/05/13 04:08:56;;;;;;;;;;;15.50;99.90;;;;;;5079111;28;19935;-72
2022/05/13 04:11:38;;;;;;;;;;;15.50;99.90;;;;;;5059856;28;19925;-72
2022/05/13 04:17:00;;;;;;;;;;;15.50;99.90;;;;;;5065679;28;19925;-71
2022/05/13 04:19:32;;;;;;;;;;;15.50;99.90;;;;;;5071859;28;19925;-72
2022/05/13 04:22:03;;;;;;;;;;;15.50;99.90;;;;;;5065843;28;19931;-71
2022/05/13 04:24:35;;;;;;;;;;;15.50;99.90;;;;;;5071798;28;19924;-71
2022/05/13 04:27:06;;;;;;;;;;;15.50;99.90;;;;;;5066294;28;19932;-71
2022/05/13 04:29:38;;;;;;;;;;;15.50;99.90;;;;;;5064936;28;19932;-72
2022/05/13 04:32:10;;;;;;;;;;;15.40;99.90;;;;;;5060050;28;19932;-73
2022/05/13 04:34:41;;;;;;;;;;;15.40;99.90;;;;;;5057261;28;19924;-72
2022/05/13 04:37:13;;;;;;;;;;;15.40;99.90;;;;;;5066574;28;19928;-73
2022/05/13 04:39:40;;;;;;;;;;;15.50;99.90;;;;;;5071149;28;19945;-72
2022/05/13 04:45:02;;;;;;;;;;;15.40;99.90;;;;;;5069849;28;19924;-73
2022/05/13 04:50:24;;;;;;;;;;;15.40;99.90;;;;;;5062023;28;19925;-72
2022/05/13 04:52:51;;;;;;;;;;;15.30;99.90;;;;;;5066232;28;19924;-72
2022/05/13 04:55:24;;;;;;;;;;;15.30;99.90;;;;;;5074115;28;19924;-72
2022/05/13 04:57:56;;;;;;;;;;;15.20;99.90;;;;;;5064845;28;19951;-72
2022/05/13 05:00:28;;;;;;;;;;;15.20;99.90;;;;;;5073658;28;20417;-73
2022/05/13 05:02:59;;;;;;;;;;;15.20;99.90;;;;;;5064555;28;19935;-72
2022/05/13 05:05:27;;;;;;;;;;;15.20;99.90;;;;;;5067623;28;19948;-72
2022/05/13 05:07:58;;;;;;;;;;;15.10;99.90;;;;;;5083819;28;19924;-72
2022/05/13 05:10:30;;;;;;;;;;;15.10;99.90;;;;;;5060614;28;20035;-73
2022/05/13 05:13:02;;;;;;;;;;;15.10;99.90;;;;;;5067661;28;19925;-72
2022/05/13 05:15:34;;;;;;;;;;;15.10;99.90;;;;;;5098576;27;20540;-72
2022/05/13 05:18:06;;;;;;;;;;;15.20;99.90;;;;;;5075586;28;19931;-74
2022/05/13 05:20:38;;;;;;;;;;;15.20;99.90;;;;;;5066969;28;19932;-72
2022/05/13 05:23:05;;;;;;;;;;;15.10;99.90;;;;;;5081835;28;20285;-73
2022/05/13 05:25:36;;;;;;;;;;;15.10;99.90;;;;;;5069546;28;20293;-73
2022/05/13 05:28:08;;;;;;;;;;;15.20;99.90;;;;;;5070646;28;19932;-73
2022/05/13 05:30:40;;;;;;;;;;;15.20;99.90;;;;;;5064938;28;19968;-72
2022/05/13 05:33:12;;;;;;;;;;;15.10;99.90;;;;;;5053744;28;19929;-72
2022/05/13 05:35:44;;;;;;;;;;;15.20;99.90;;;;;;5070405;28;19932;-72
2022/05/13 05:38:15;;;;;;;;;;;15.20;99.90;;;;;;5057096;28;19928;-72
2022/05/13 05:40:47;;;;;;;;;;;15.30;99.90;;;;;;5070353;28;20435;-72
2022/05/13 05:43:20;;;;;;;;;;;15.20;99.90;;;;;;5059335;28;20388;-73
2022/05/13 05:45:50;;;;;;;;;;;15.20;99.90;;;;;;5055960;28;20453;-73
2022/05/13 05:48:22;;;;;;;;;;;15.20;99.90;;;;;;5069068;28;19954;-73
2022/05/13 05:50:50;;;;;;;;;;;15.20;99.90;;;;;;5070685;28;19929;-73
2022/05/13 05:59:06;;;;;;;;;;;15.30;99.90;;;;;;5069907;28;19928;-73
2022/05/13 06:01:37;;;;;;;;;;;15.30;99.90;;;;;;5071743;28;19925;-72
2022/05/13 06:04:09;;;;;;;;;;;15.30;99.90;;;;;;5067506;28;19939;-73
2022/05/13 06:06:40;;;;;;;;;;;15.40;99.90;;;;;;5069648;28;19929;-73
2022/05/13 06:09:12;;;;;;;;;;;15.40;99.90;;;;;;5070899;28;19929;-73
2022/05/13 06:11:44;;;;;;;;;;;15.40;99.90;;;;;;5063694;28;19929;-73
2022/05/13 06:14:15;;;;;;;;;;;15.40;99.90;;;;;;5067204;28;19935;-73
2022/05/13 06:16:48;;;;;;;;;;;15.50;99.90;;;;;;5068434;28;19929;-73
2022/05/13 06:19:20;;;;;;;;;;;15.50;99.90;;;;;;5069561;28;20297;-73
2022/05/13 06:21:51;;;;;;;;;;;15.50;99.90;;;;;;5052487;28;19928;-73
2022/05/13 06:24:23;;;;;;;;;;;15.60;99.90;;;;;;5064601;28;19930;-73
2022/05/13 06:26:51;;;;;;;;;;;15.60;99.90;;;;;;5070538;28;19928;-73
2022/05/13 06:29:24;;;;;;;;;;;15.70;99.90;;;;;;5068776;28;19925;-72
2022/05/13 06:31:58;;;;;;;;;;;15.70;99.90;;;;;;5080880;28;19929;-73
2022/05/13 06:34:30;;;;;;;;;;;15.80;99.90;;;;;;5066983;28;19932;-73
2022/05/13 06:37:02;;;;;;;;;;;15.90;99.90;;;;;;5071511;28;19970;-73
2022/05/13 06:39:33;;;;;;;;;;;16.00;99.90;;;;;;5068990;28;19924;-73
2022/05/13 06:42:05;;;;;;;;;;;16.10;99.90;;;;;;5070396;28;19932;-72
2022/05/13 06:44:41;;;;;;;;;;;16.10;99.90;;;;;;5064984;28;19924;-72
2022/05/13 06:47:13;;;;;;;;;;;16.20;99.90;;;;;;5071382;28;19924;-73
2022/05/13 06:49:45;;;;;;;;;;;16.30;99.90;;;;;;5069232;28;19925;-73
2022/05/13 06:52:16;;;;;;;;;;;16.40;99.90;;;;;;5053240;28;19928;-73
2022/05/13 06:54:48;;;;;;;;;;;16.40;99.90;;;;;;5064944;28;20014;-74
2022/05/13 06:57:19;;;;;;;;;;;16.40;99.90;;;;;;5067320;28;19925;-73
2022/05/13 06:59:51;;;;;;;;;;;16.40;99.90;;;;;;5068493;28;19928;-73
2022/05/13 07:02:23;;;;;;;;;;;16.40;99.90;;;;;;5068470;28;19931;-72
2022/05/13 07:04:54;;;;;;;;;;;16.50;99.90;;;;;;5065795;28;19967;-73
2022/05/13 07:07:28;;;;;;;;;;;16.50;99.90;;;;;;5078697;28;19932;-73
2022/05/13 07:09:59;;;;;;;;;;;16.60;99.90;;;;;;5078850;28;19948;-72
2022/05/13 07:12:31;;;;;;;;;;;16.60;99.90;;;;;;5071356;28;19928;-73
2022/05/13 07:15:04;;;;;;;;;;;16.70;99.90;;;;;;5071872;28;19940;-73
2022/05/13 07:17:36;;;;;;;;;;;16.70;99.90;;;;;;5071605;28;19925;-72
2022/05/13 07:20:09;;;;;;;;;;;16.70;99.90;;;;;;5060531;28;20423;-72
2022/05/13 07:22:35;;;;;;;;;;;16.70;99.90;;;;;;5069906;28;19924;-73
2022/05/13 07:25:07;;;;;;;;;;;16.80;99.90;;;;;;5082362;28;19946;-73
2022/05/13 07:27:39;;;;;;;;;;;16.80;99.90;;;;;;5055530;28;20647;-72
2022/05/13 07:30:11;;;;;;;;;;;16.80;99.90;;;;;;5076237;28;19928;-73
2022/05/13 07:32:43;;;;;;;;;;;16.90;99.90;;;;;;5076769;28;19925;-73
2022/05/13 07:35:14;;;;;;;;;;;16.90;99.90;;;;;;5064109;28;19931;-73
2022/05/13 07:37:46;;;;;;;;;;;16.90;99.90;;;;;;5076690;28;19931;-73
2022/05/13 07:43:08;;;;;;;;;;;17.10;99.90;;;;;;5079717;28;19951;-72
2022/05/13 07:45:39;;;;;;;;;;;17.10;99.90;;;;;;5072432;28;19932;-73
2022/05/13 07:48:11;;;;;;;;;;;17.20;99.90;;;;;;5079779;28;19924;-73
2022/05/13 07:50:43;;;;;;;;;;;17.30;99.90;;;;;;5073774;28;19924;-73
2022/05/13 07:53:14;;;;;;;;;;;17.30;99.90;;;;;;5060994;28;19935;-72
2022/05/13 07:55:46;;;;;;;;;;;17.30;99.90;;;;;;5068394;28;20512;-73
2022/05/13 07:58:18;;;;;;;;;;;17.30;99.90;;;;;;5075473;28;19928;-73
2022/05/13 08:00:49;;;;;;;;;;;17.30;99.90;;;;;;5070289;28;19925;-73
2022/05/13 08:03:21;;;;;;;;;;;17.20;99.90;;;;;;5071253;28;20304;-73
2022/05/13 08:05:57;;;;;;;;;;;17.20;99.90;;;;;;5072879;28;20296;-73
2022/05/13 08:08:33;;;;;;;;;;;17.20;99.90;;;;;;5062902;28;19931;-73
2022/05/13 08:11:05;;;;;;;;;;;17.10;99.90;;;;;;5075269;28;19924;-73
2022/05/13 08:13:37;;;;;;;;;;;17.10;99.90;;;;;;5077520;28;19936;-73
2022/05/13 08:16:13;;;;;;;;;;;17.10;99.90;;;;;;5054318;28;19933;-72
2022/05/13 08:18:45;;;;;;;;;;;17.00;99.90;;;;;;5074202;28;19931;-72
2022/05/13 08:21:17;;;;;;;;;;;17.00;99.90;;;;;;5061033;28;19985;-73
2022/05/13 08:23:49;;;;;;;;;;;16.90;99.90;;;;;;5084116;28;19933;-73
2022/05/13 08:26:21;;;;;;;;;;;16.80;99.90;;;;;;5069730;28;19925;-73
2022/05/13 08:28:52;;;;;;;;;;;16.80;99.90;;;;;;5074350;28;19932;-73
2022/05/13 08:31:24;;;;;;;;;;;16.70;99.90;;;;;;5080669;28;20006;-73
2022/05/13 08:33:56;;;;;;;;;;;16.70;99.90;;;;;;5074616;28;19939;-73
2022/05/13 08:36:27;;;;;;;;;;;16.70;99.90;;;;;;5073796;28;19924;-73
2022/05/13 08:38:54;;;;;;;;;;;16.70;99.90;;;;;;5075249;28;19986;-73
2022/05/13 08:41:39;;;;;;;;;;;16.60;99.90;;;;;;5071646;28;19925;-73
2022/05/13 08:44:14;;;;;;;;;;;16.60;99.90;;;;;;5099433;28;19928;-73
2022/05/13 08:46:50;;;;;;;;;;;16.50;99.90;;;;;;5075226;28;19932;-73
2022/05/13 08:49:21;;;;;;;;;;;16.50;99.90;;;;;;5081401;28;19929;-73
2022/05/13 08:54:58;;;;;;;;;;;16.30;99.90;;;;;;5070767;28;20436;-73
2022/05/13 08:57:31;;;;;;;;;;;16.20;99.90;;;;;;5064795;28;19928;-73
2022/05/13 09:00:06;;;;;;;;;;;16.20;99.90;;;;;;5074904;28;20381;-72
2022/05/13 09:02:39;;;;;;;;;;;16.10;99.90;;;;;;5102420;28;19925;-73
2022/05/13 09:05:21;;;;;;;;;;;16.00;99.90;;;;;;5071463;28;20011;-73
2022/05/13 09:07:53;;;;;;;;;;;16.00;99.90;;;;;;5074519;28;20597;-73
2022/05/13 09:10:25;;;;;;;;;;;15.90;99.90;;;;;;5077815;28;19928;-73
2022/05/13 09:13:12;;;;;;;;;;;15.80;99.90;;;;;;5077264;28;20300;-73
2022/05/13 09:15:42;;;;;;;;;;;15.70;99.90;;;;;;5078372;28;19937;-72
2022/05/13 09:18:19;;;;;;;;;;;15.70;99.90;;;;;;5071855;28;19924;-73
2022/05/13 09:20:58;;;;;;;;;;;15.60;99.90;;;;;;5079855;28;19928;-73
2022/05/13 09:23:30;;;;;;;;;;;15.60;99.90;;;;;;5051538;28;19940;-73
2022/05/13 09:26:15;;;;;;;;;;;15.50;99.90;;;;;;5075447;28;19924;-73
2022/05/13 09:29:07;;;;;;;;;;;15.40;99.90;;;;;;5075973;28;19924;-73
2022/05/13 09:31:41;;;;;;;;;;;15.30;99.90;;;;;;5073407;28;20371;-73
2022/05/13 09:34:14;;;;;;;;;;;15.30;99.90;;;;;;5075715;28;19924;-73
2022/05/13 09:36:48;;;;;;;;;;;15.20;99.90;;;;;;5076654;28;19924;-73
2022/05/13 09:39:24;;;;;;;;;;;15.20;99.90;;;;;;5080331;28;19960;-73
2022/05/13 09:41:56;;;;;;;;;;;15.30;99.90;;;;;;5113506;27;19928;-73
2022/05/13 09:44:27;;;;;;;;;;;15.30;99.90;;;;;;5085893;28;20027;-73
2022/05/13 09:47:13;;;;;;;;;;;15.30;99.90;;;;;;5077589;28;20391;-73
2022/05/13 09:49:47;;;;;;;;;;;15.30;99.90;;;;;;5067960;28;19947;-73
2022/05/13 09:52:24;;;;;;;;;;;15.20;99.90;;;;;;5076009;28;19931;-73
2022/05/13 09:55:03;;;;;;;;;;;15.20;99.90;;;;;;5071336;28;19929;-72
2022/05/13 09:57:37;;;;;;;;;;;15.10;99.90;;;;;;5081319;28;20770;-73
2022/05/13 10:00:18;;;;;;;;;;;15.10;99.90;;;;;;5074707;28;20018;-73
2022/05/13 10:03:05;;;;;;;;;;;15.10;99.90;;;;;;5052597;28;19928;-72
2022/05/13 10:05:37;;;;;;;;;;;15.00;99.90;;;;;;5081366;28;19990;-72
2022/05/13 10:08:14;;;;;;;;;;;14.90;99.90;;;;;;5081974;28;20517;-73
2022/05/13 10:14:00;;;;;;;;;;;14.90;99.90;;;;;;5087439;28;19931;-72
2022/05/13 10:16:40;;;;;;;;;;;14.90;99.90;;;;;;5069741;28;19925;-73
2022/05/13 10:19:24;;;;;;;;;;;14.90;99.90;;;;;;5076716;28;20427;-73
2022/05/13 10:22:00;;;;;;;;;;;15.00;99.90;;;;;;5077455;28;19934;-72
2022/05/13 10:24:51;;;;;;;;;;;15.00;99.90;;;;;;5072473;28;19929;-72
2022/05/13 10:27:22;;;;;;;;;;;15.20;99.90;;;;;;5072350;28;20026;-73
2022/05/13 10:29:57;;;;;;;;;;;15.30;99.90;;;;;;5079645;28;19939;-72
2022/05/13 10:32:41;;;;;;;;;;;15.40;99.90;;;;;;5071880;28;20015;-72
2022/05/13 10:35:16;;;;;;;;;;;15.50;99.90;;;;;;5078425;28;19931;-73
2022/05/13 10:37:47;;;;;;;;;;;15.60;99.90;;;;;;5075161;28;19928;-73
2022/05/13 10:40:20;;;;;;;;;;;15.70;99.90;;;;;;5077308;28;19925;-72
2022/05/13 10:42:58;;;;;;;;;;;15.80;99.90;;;;;;5076322;28;19924;-73
2022/05/13 10:45:30;;;;;;;;;;;15.90;99.90;;;;;;5082735;28;19935;-73
2022/05/13 10:48:02;;;;;;;;;;;15.90;99.90;;;;;;5073273;28;19936;-73
2022/05/13 10:50:36;;;;;;;;;;;15.90;99.90;;;;;;5070247;28;19924;-73
2022/05/13 10:53:15;;;;;;;;;;;16.00;99.90;;;;;;5072687;28;20463;-73
2022/05/13 10:55:49;;;;;;;;;;;16.10;99.90;;;;;;5076256;28;20277;-73
2022/05/13 10:58:30;;;;;;;;;;;16.10;99.90;;;;;;5071517;28;20307;-73
2022/05/13 11:01:09;;;;;;;;;;;16.10;99.90;;;;;;5064378;28;19925;-72
2022/05/13 11:03:44;;;;;;;;;;;16.10;99.90;;;;;;5047818;28;19929;-72
2022/05/13 11:06:24;;;;;;;;;;;16.10;99.90;;;;;;5074998;28;20408;-73
2022/05/13 11:09:18;;;;;;;;;;;16.30;99.90;;;;;;5072257;28;19932;-73
2022/05/13 11:11:54;;;;;;;;;;;16.50;99.90;;;;;;5071171;28;19928;-73
2022/05/13 11:14:58;;;;;;;;;;;16.80;99.90;;;;;;5080433;28;19928;-73
2022/05/13 11:17:33;;;;;;;;;;;17.00;99.90;;;;;;5061535;28;19924;-73
2022/05/13 11:20:12;;;;;;;;;;;17.20;99.90;;;;;;5055377;28;19929;-73
2022/05/13 11:23:03;;;;;;;;;;;17.40;99.90;;;;;;5068424;28;19924;-72
2022/05/13 11:25:56;;;;;;;;;;;17.60;99.90;;;;;;5059394;28;20382;-73
2022/05/13 11:28:39;;;;;;;;;;;17.60;99.90;;;;;;5059905;28;19929;-72
2022/05/13 11:31:14;;;;;;;;;;;17.90;99.90;;;;;;5079776;28;19924;-73
2022/05/13 11:33:59;;;;;;;;;;;18.00;99.90;;;;;;5052503;28;19943;-73
2022/05/13 11:36:37;;;;;;;;;;;18.10;99.90;;;;;;5055207;28;19924;-73
2022/05/13 11:39:18;;;;;;;;;;;18.20;99.90;;;;;;5068674;28;20426;-73
2022/05/13 11:41:53;;;;;;;;;;;18.30;99.90;;;;;;5067459;28;19929;-73
2022/05/13 11:44:33;;;;;;;;;;;18.30;99.90;;;;;;5093914;28;19924;-73
2022/05/13 11:47:04;;;;;;;;;;;18.20;99.90;;;;;;5061660;28;19940;-73
2022/05/13 11:49:37;;;;;;;;;;;18.20;99.90;;;;;;5065994;28;19948;-73
2022/05/13 11:52:12;;;;;;;;;;;18.30;99.90;;;;;;5052291;28;19939;-73
2022/05/13 11:54:44;;;;;;;;;;;18.40;99.90;;;;;;5062777;28;19936;-73
2022/05/13 11:57:24;;;;;;;;;;;18.30;99.90;;;;;;5060874;28;19931;-73
2022/05/13 12:00:23;;;;;;;;;;;18.30;99.90;;;;;;5066869;28;19926;-73
2022/05/13 12:02:56;;;;;;;;;;;18.30;99.90;;;;;;5039937;28;19929;-72
2022/05/13 12:05:29;;;;;;;;;;;18.30;99.90;;;;;;5065639;28;19928;-73
2022/05/13 12:08:07;;;;;;;;;;;18.30;99.90;;;;;;5064640;28;19928;-73
2022/05/13 12:10:39;;;;;;;;;;;18.10;99.90;;;;;;5070967;28;19928;-72
2022/05/13 12:13:23;;;;;;;;;;;18.00;99.90;;;;;;5063731;28;20161;-72
2022/05/13 12:16:06;;;;;;;;;;;18.10;99.90;;;;;;5064121;28;20023;-72
2022/05/13 12:18:45;;;;;;;;;;;18.10;99.90;;;;;;5065734;28;20439;-73
2022/05/13 12:21:36;;;;;;;;;;;18.40;99.90;;;;;;5062494;28;19924;-73
2022/05/13 12:24:10;;;;;;;;;;;18.50;99.90;;;;;;5069491;28;20416;-72
2022/05/13 12:26:51;;;;;;;;;;;18.70;99.90;;;;;;5060913;28;20424;-73
2022/05/13 12:29:24;;;;;;;;;;;19.10;99.90;;;;;;5067114;28;20352;-73
2022/05/13 12:31:56;;;;;;;;;;;19.30;99.90;;;;;;5066716;28;19932;-72
2022/05/13 12:37:39;;;;;;;;;;;19.30;99.90;;;;;;5049522;28;19935;-73
2022/05/13 12:40:11;;;;;;;;;;;19.30;99.90;;;;;;5059869;28;19951;-72
2022/05/13 12:42:50;;;;;;;;;;;19.20;99.90;;;;;;5065590;28;20715;-73
2022/05/13 12:45:36;;;;;;;;;;;19.20;99.90;;;;;;5071084;28;19929;-73
2022/05/13 12:48:08;;;;;;;;;;;19.20;99.90;;;;;;5059341;28;19992;-73
2022/05/13 12:50:43;;;;;;;;;;;19.10;99.90;;;;;;5054328;28;19928;-72
2022/05/13 12:53:29;;;;;;;;;;;19.00;99.90;;;;;;5053418;28;19935;-72
2022/05/13 12:56:08;;;;;;;;;;;18.90;99.90;;;;;;5062524;28;19932;-73
2022/05/13 12:58:42;;;;;;;;;;;19.00;99.90;;;;;;5059587;28;19987;-73
2022/05/13 13:01:14;;;;;;;;;;;19.10;99.90;;;;;;5061931;28;20407;-73
2022/05/13 13:03:47;;;;;;;;;;;19.30;99.90;;;;;;5062171;28;19933;-73
2022/05/13 13:06:20;;;;;;;;;;;19.40;99.90;;;;;;5059682;28;19928;-73
2022/05/13 13:08:52;;;;;;;;;;;19.40;99.90;;;;;;5067807;28;19933;-73
2022/05/13 13:11:33;;;;;;;;;;;19.50;99.90;;;;;;5062429;28;19928;-73
2022/05/13 13:14:29;;;;;;;;;;;19.40;99.90;;;;;;5065569;28;20308;-73
2022/05/13 13:17:07;;;;;;;;;;;19.40;99.90;;;;;;5070640;28;19928;-73
2022/05/13 13:19:39;;;;;;;;;;;19.40;99.90;;;;;;5101082;28;19934;-71
2022/05/13 13:22:14;;;;;;;;;;;19.40;99.90;;;;;;5070242;28;20022;-73
2022/05/13 13:24:45;;;;;;;;;;;19.30;99.90;;;;;;5068625;28;19929;-73
2022/05/13 13:27:21;;;;;;;;;;;19.20;99.90;;;;;;5070025;28;20015;-73
2022/05/13 13:29:48;;;;;;;;;;;19.20;99.90;;;;;;5070192;28;19931;-73
2022/05/13 13:32:21;;;;;;;;;;;19.30;99.90;;;;;;5070049;28;19924;-73
2022/05/13 13:35:00;;;;;;;;;;;19.30;99.90;;;;;;5067264;28;19931;-73
2022/05/13 13:37:38;;;;;;;;;;;19.50;99.90;;;;;;5069203;28;19933;-73
2022/05/13 13:40:13;;;;;;;;;;;19.60;99.90;;;;;;5083384;28;19935;-73
2022/05/13 13:42:45;;;;;;;;;;;19.80;99.90;;;;;;5061622;28;19924;-73
2022/05/13 13:45:21;;;;;;;;;;;19.80;99.90;;;;;;5065227;28;19929;-73
2022/05/13 13:47:54;;;;;;;;;;;19.60;99.90;;;;;;5081096;28;19928;-73
2022/05/13 13:50:30;;;;;;;;;;;19.60;99.90;;;;;;5068587;28;19924;-73
2022/05/13 13:53:03;;;;;;;;;;;19.60;99.90;;;;;;5065341;28;20297;-73
2022/05/13 13:55:39;;;;;;;;;;;19.60;99.90;;;;;;5050645;28;20412;-73
2022/05/13 13:58:22;;;;;;;;;;;19.60;99.90;;;;;;5084511;28;19931;-72
2022/05/13 14:00:54;;;;;;;;;;;19.50;99.90;;;;;;5070074;28;19932;-73
2022/05/13 14:03:26;;;;;;;;;;;19.60;99.90;;;;;;5071198;28;19925;-73
2022/05/13 14:06:00;;;;;;;;;;;19.60;99.90;;;;;;5067912;28;19931;-73
2022/05/13 14:08:34;;;;;;;;;;;19.80;99.90;;;;;;5068014;28;19939;-73
2022/05/13 14:11:08;;;;;;;;;;;19.80;99.90;;;;;;5072616;28;19929;-73
2022/05/13 14:13:41;;;;;;;;;;;19.80;99.90;;;;;;5060557;28;19938;-73
2022/05/13 14:16:14;;;;;;;;;;;20.00;99.90;;;;;;5068235;28;19924;-73
2022/05/13 14:18:47;;;;;;;;;;;19.90;99.90;;;;;;5074279;28;19929;-73
2022/05/13 14:21:22;;;;;;;;;;;19.80;99.90;;;;;;5061356;28;19929;-72
2022/05/13 14:24:05;;;;;;;;;;;19.70;99.90;;;;;;5063889;28;19928;-72
2022/05/13 14:26:50;;;;;;;;;;;19.60;99.90;;;;;;5067325;28;20373;-73
2022/05/13 14:29:17;;;;;;;;;;;19.70;99.90;;;;;;5070374;28;19925;-73
2022/05/13 14:31:53;;;;;;;;;;;19.90;99.90;;;;;;5080016;28;20404;-73
2022/05/13 14:34:24;;;;;;;;;;;20.50;99.90;;;;;;5068881;28;19931;-73
2022/05/13 14:36:58;;;;;;;;;;;20.70;99.90;;;;;;5069590;28;19928;-73
2022/05/13 14:39:49;;;;;;;;;;;20.70;99.90;;;;;;5070250;28;20052;-73
2022/05/13 14:42:29;;;;;;;;;;;20.40;99.90;;;;;;5070159;28;19929;-73
2022/05/13 14:45:15;;;;;;;;;;;20.40;99.90;;;;;;5063556;28;19925;-73
2022/05/13 14:47:48;;;;;;;;;;;20.50;99.90;;;;;;5083253;28;19936;-73
2022/05/13 14:50:30;;;;;;;;;;;20.40;99.90;;;;;;5069773;28;19925;-73
2022/05/13 14:53:04;;;;;;;;;;;20.40;99.90;;;;;;5077761;28;19936;-73
2022/05/13 14:55:38;;;;;;;;;;;20.40;99.90;;;;;;5058952;28;20557;-73
2022/05/13 14:58:23;;;;;;;;;;;20.20;99.90;;;;;;5069294;28;20319;-73
2022/05/13 15:00:56;;;;;;;;;;;20.20;99.90;;;;;;5069678;28;19925;-73
2022/05/13 15:03:31;;;;;;;;;;;20.20;99.90;;;;;;5078899;28;19929;-73
2022/05/13 15:06:20;;;;;;;;;;;20.40;99.90;;;;;;5071113;28;19928;-74
2022/05/13 15:08:52;;;;;;;;;;;20.90;99.90;;;;;;5069187;28;20416;-73
2022/05/13 15:11:24;;;;;;;;;;;21.50;99.90;;;;;;5055030;28;19991;-74
2022/05/13 15:13:56;;;;;;;;;;;21.80;99.90;;;;;;5061521;28;20397;-73
2022/05/13 15:16:30;;;;;;;;;;;22.20;99.90;;;;;;5065934;28;20022;-73
2022/05/13 15:19:01;;;;;;;;;;;22.30;99.90;;;;;;5062690;28;20289;-72
2022/05/13 15:21:33;;;;;;;;;;;22.20;99.90;;;;;;5064973;28;20253;-73
2022/05/13 15:24:05;;;;;;;;;;;21.80;99.90;;;;;;5065841;28;19928;-73
2022/05/13 15:26:37;;;;;;;;;;;21.60;99.90;;;;;;5064072;28;19932;-72